Time;durP1;ratioP1;P1;durP2;ratioP2;P2;SDS_P1;SDS_P2;PMS_P1;PMS_P2;Temp;Humidity;BMP_temperature;BMP_pressure;BME280_temperature;BME280_humidity;BME280_pressure;Samples;Min_cycle;Max_cycle;Signal;HPM_P1;HPM_P2
2022/01/23 00:02:12;;;;;;;79.22;36.17;;;;;;;3.92;99.43;103281.50;5045230;28;20533;-68
2022/01/23 00:04:38;;;;;;;;;;;;;;;3.95;99.35;103263.38;5034603;28;20078;-68
2022/01/23 00:07:07;;;;;;;83.00;36.15;;;;;;;4.04;99.13;103262.25;5023663;28;20402;-68
2022/01/23 00:09:34;;;;;;;80.93;36.83;;;;;;;3.95;99.38;103265.97;5041926;28;20037;-68
2022/01/23 00:12:04;;;;;;;77.78;34.80;;;;;;;3.92;99.66;103266.09;5020859;28;20033;-68
2022/01/23 00:17:20;;;;;;;77.50;37.03;;;;;;;3.89;100.00;103274.72;5042316;28;20040;-69
2022/01/23 00:19:47;;;;;;;82.93;38.00;;;;;;;3.83;100.00;103282.63;5038360;28;20164;-68
2022/01/23 00:22:13;;;;;;;85.53;36.17;;;;;;;3.98;100.00;103276.13;5037903;28;20044;-69
2022/01/23 00:30:32;;;;;;;77.57;35.67;;;;;;;3.94;99.40;103264.28;5036815;28;20033;-68
2022/01/23 00:33:00;;;;;;;73.63;35.08;;;;;;;3.86;100.00;103272.25;5049042;28;20033;-69
2022/01/23 00:35:27;;;;;;;75.10;33.92;;;;;;;3.82;100.00;103269.84;5040311;28;20032;-68
2022/01/23 00:37:55;;;;;;;80.85;36.40;;;;;;;3.81;100.00;103265.59;5031731;28;20048;-69
2022/01/23 00:40:25;;;;;;;78.50;36.97;;;;;;;3.84;100.00;103263.78;5033895;28;20043;-68
2022/01/23 00:42:53;;;;;;;78.25;36.20;;;;;;;3.81;100.00;103263.03;5016424;28;20067;-68
2022/01/23 00:47:45;;;;;;;80.88;36.58;;;;;;;3.82;100.00;103255.25;5041874;28;20045;-69
2022/01/23 00:50:11;;;;;;;80.30;36.70;;;;;;;3.75;100.00;103261.53;5041478;28;20032;-68
2022/01/23 00:52:36;;;;;;;73.50;35.40;;;;;;;3.82;100.00;103267.28;5056687;28;20123;-68
2022/01/23 00:55:04;;;;;;;74.82;35.42;;;;;;;3.87;100.00;103263.66;5017208;28;20160;-69
2022/01/23 00:57:33;;;;;;;72.10;35.25;;;;;;;3.85;100.00;103256.91;5054100;28;20336;-68
2022/01/23 01:00:00;;;;;;;78.82;36.33;;;;;;;3.80;100.00;103258.78;5059349;28;20575;-68
2022/01/23 01:02:26;;;;;;;83.47;37.42;;;;;;;3.84;100.00;103240.69;5033987;28;20036;-68
2022/01/23 01:04:55;;;;;;;76.60;35.28;;;;;;;3.86;100.00;103240.59;5038810;28;20048;-69
2022/01/23 01:07:21;;;;;;;79.50;34.85;;;;;;;3.83;100.00;103240.72;5018981;28;20108;-69
2022/01/23 01:09:50;;;;;;;78.72;35.72;;;;;;;3.89;100.00;103249.03;5044049;28;20376;-68
2022/01/23 01:12:32;;;;;;;72.75;35.47;;;;;;;3.83;100.00;103251.81;5009650;28;20040;-69
2022/01/23 01:31:30;;;;;;;82.65;36.00;;;;;;;3.85;100.00;103250.03;4987860;28;20045;-70
2022/01/23 01:34:05;;;;;;;80.07;35.27;;;;;;;3.80;100.00;103245.94;5024053;28;20037;-70
2022/01/23 01:36:47;;;;;;;74.18;36.92;;;;;;;3.83;100.00;103248.41;5026737;28;20045;-71
2022/01/23 01:39:15;;;;;;;74.85;37.22;;;;;;;3.78;100.00;103247.72;5002832;28;20546;-71
2022/01/23 01:41:43;;;;;;;83.53;36.05;;;;;;;3.83;100.00;103251.81;5025715;28;20133;-72
2022/01/23 01:44:09;;;;;;;82.28;36.78;;;;;;;3.82;100.00;103262.13;5003580;28;20025;-71
2022/01/23 01:46:54;;;;;;;81.35;37.15;;;;;;;3.77;100.00;103266.56;5007281;28;20033;-71
2022/01/23 01:49:32;;;;;;;78.40;36.72;;;;;;;3.74;100.00;103269.25;5005046;28;20025;-71
2022/01/23 01:52:03;;;;;;;78.45;36.20;;;;;;;3.77;100.00;103264.88;5025892;28;20040;-71
2022/01/23 01:54:31;;;;;;;89.47;38.38;;;;;;;3.76;100.00;103262.34;5031137;28;20115;-71
2022/01/23 01:57:06;;;;;;;75.90;36.33;;;;;;;3.74;100.00;103251.28;5007328;28;20029;-71
2022/01/23 02:10:45;;;;;;;89.95;38.28;;;;;;;3.73;100.00;103247.91;5020878;28;20345;-72
2022/01/23 02:13:13;;;;;;;74.63;35.83;;;;;;;3.67;100.00;103238.69;5031791;28;20033;-71
2022/01/23 02:18:24;;;;;;;79.00;37.08;;;;;;;3.75;100.00;103229.84;5025106;28;20069;-71
2022/01/23 02:54:26;;;;;;;80.43;36.67;;;;;;;3.63;100.00;103239.66;5013548;28;20433;-71
2022/01/23 02:56:56;;;;;;;83.22;36.75;;;;;;;3.63;100.00;103239.66;5002345;28;20041;-71
2022/01/23 02:59:29;;;;;;;93.68;39.33;;;;;;;3.60;100.00;103232.06;4989612;28;20033;-71
2022/01/23 03:05:08;;;;;;;83.55;37.63;;;;;;;3.61;100.00;103235.47;5022975;28;20407;-71
2022/01/23 03:10:22;;;;;;;81.30;37.20;;;;;;;3.59;100.00;103247.50;5024354;28;20036;-72
2022/01/23 03:29:16;;;;;;;84.32;36.35;;;;;;;3.59;100.00;103240.66;5022174;28;20041;-71
2022/01/23 03:32:19;;;;;;;86.20;39.75;;;;;;;3.59;100.00;103248.34;5023579;28;20048;-71
2022/01/23 03:34:29;;;;;;;88.53;39.88;;;;;;;3.62;100.00;103247.41;5023487;28;20049;-71
2022/01/23 03:36:56;;;;;;;86.32;37.53;;;;;;;3.59;100.00;103239.81;5020036;28;20395;-71
2022/01/23 03:39:22;;;;;;;86.43;38.38;;;;;;;3.60;100.00;103238.91;4987342;28;20098;-71
2022/01/23 03:41:48;;;;;;;85.55;37.15;;;;;;;3.60;100.00;103244.91;4986790;28;20033;-71
2022/01/23 03:44:16;;;;;;;88.38;39.40;;;;;;;3.58;100.00;103236.41;5004543;28;20040;-72
2022/01/23 03:49:31;;;;;;;85.85;37.33;;;;;;;3.58;100.00;103246.69;5024082;28;20072;-72
2022/01/23 03:52:08;;;;;;;87.47;38.38;;;;;;;3.55;100.00;103246.78;5005355;28;20116;-71
2022/01/23 03:54:38;;;;;;;90.40;38.85;;;;;;;3.51;100.00;103255.47;5008312;28;20041;-70
2022/01/23 03:57:06;;;;;;;84.05;37.38;;;;;;;3.52;100.00;103254.56;5005998;28;20510;-72
2022/01/23 03:59:34;;;;;;;81.70;36.33;;;;;;;3.57;100.00;103257.00;5025114;28;20048;-72
2022/01/23 04:02:00;;;;;;;77.45;36.63;;;;;;;3.56;100.00;103261.28;5004279;28;20048;-72
2022/01/23 04:06:58;;;;;;;86.88;38.03;;;;;;;3.53;100.00;103263.94;5005371;28;20530;-71
2022/01/23 04:09:24;;;;;;;92.88;40.42;;;;;;;3.57;100.00;103264.69;4990895;28;20120;-71
2022/01/23 04:11:51;;;;;;;84.82;36.38;;;;;;;3.53;100.00;103271.66;5027363;28;20032;-71
2022/01/23 04:14:18;;;;;;;82.60;37.38;;;;;;;3.51;100.00;103266.56;5006808;28;20037;-72
2022/01/23 04:59:54;;;;;;;99.93;41.65;;;;;;;3.58;100.00;103256.09;5025412;28;20045;-71
2022/01/23 05:05:48;;;;;;;105.45;42.85;;;;;;;3.55;100.00;103254.47;5002147;28;20589;-71
2022/01/23 05:08:22;;;;;;;91.18;39.80;;;;;;;3.49;100.00;103254.69;5009649;28;20038;-71
2022/01/23 05:10:54;;;;;;;94.55;40.25;;;;;;;3.47;100.00;103246.19;5032936;28;20041;-71
2022/01/23 05:13:52;;;;;;;91.40;39.63;;;;;;;3.46;100.00;103255.59;5011804;28;20045;-71
2022/01/23 05:16:20;;;;;;;100.03;41.80;;;;;;;3.49;100.00;103258.06;5012018;28;20021;-71
2022/01/23 05:18:46;;;;;;;96.07;42.17;;;;;;;3.47;100.00;103247.03;5025038;28;20029;-71
2022/01/23 05:21:45;;;;;;;91.70;41.83;;;;;;;3.46;100.00;103258.16;5009561;28;20075;-72
2022/01/23 05:24:04;;;;;;;100.93;40.67;;;;;;;3.45;100.00;103255.66;5025026;28;20079;-71
2022/01/23 05:26:31;;;;;;;95.30;41.60;;;;;;;3.46;100.00;103257.31;4994045;28;20046;-71
2022/01/23 05:28:57;;;;;;;96.32;41.17;;;;;;;3.44;100.00;103261.66;5010372;28;20046;-71
2022/01/23 05:31:23;;;;;;;103.10;42.03;;;;;;;3.42;100.00;103266.84;5023882;28;20041;-71
2022/01/23 05:33:48;;;;;;;96.28;40.00;;;;;;;3.43;100.00;103260.84;5025237;28;20033;-70
2022/01/23 05:36:15;;;;;;;102.43;42.63;;;;;;;3.45;100.00;103264.19;5029405;28;20041;-70
2022/01/23 05:38:41;;;;;;;98.70;40.80;;;;;;;3.44;100.00;103259.94;5012809;28;20025;-71
2022/01/23 05:41:07;;;;;;;92.60;40.28;;;;;;;3.43;100.00;103263.41;4991728;28;20025;-71
2022/01/23 05:43:34;;;;;;;98.95;41.03;;;;;;;3.42;100.00;103264.28;5005837;28;20432;-71
2022/01/23 05:45:59;;;;;;;95.88;39.20;;;;;;;3.42;100.00;103263.44;5029125;28;20044;-71
2022/01/23 05:48:25;;;;;;;99.03;39.80;;;;;;;3.43;100.00;103260.00;5017655;28;20040;-71
2022/01/23 05:50:51;;;;;;;86.45;37.92;;;;;;;3.44;100.00;103256.53;5028022;28;20100;-71
2022/01/23 05:53:55;;;;;;;102.10;42.67;;;;;;;3.51;100.00;103256.28;4983542;28;20039;-71
2022/01/23 05:56:23;;;;;;;96.68;41.10;;;;;;;3.47;100.00;103259.03;4984573;28;20067;-70
2022/01/23 05:58:56;;;;;;;86.47;36.17;;;;;;;3.44;100.00;103259.09;5005722;28;20045;-71
2022/01/23 06:01:27;;;;;;;85.07;37.30;;;;;;;3.43;100.00;103260.00;5014859;28;20040;-71
2022/01/23 06:03:59;;;;;;;93.20;39.37;;;;;;;3.42;100.00;103269.41;4987285;28;20037;-71
2022/01/23 06:06:36;;;;;;;93.03;39.83;;;;;;;3.42;100.00;103276.28;5003092;28;20455;-71
2022/01/23 06:09:02;;;;;;;89.03;39.53;;;;;;;3.44;100.00;103284.75;5006606;28;20648;-71
2022/01/23 06:11:27;;;;;;;88.63;38.58;;;;;;;3.41;100.00;103272.88;5025730;28;20040;-71
2022/01/23 06:13:54;;;;;;;91.53;39.75;;;;;;;3.41;100.00;103269.47;5035990;28;20495;-71
2022/01/23 06:16:19;;;;;;;93.85;39.88;;;;;;;3.41;100.00;103274.59;5009407;28;20041;-71
2022/01/23 06:19:05;;;;;;;91.10;39.13;;;;;;;3.41;100.00;103275.44;5025216;28;20041;-71
2022/01/23 06:21:51;;;;;;;91.28;39.72;;;;;;;3.40;100.00;103278.88;5024715;28;20058;-71
2022/01/23 06:24:37;;;;;;;96.07;39.60;;;;;;;3.40;100.00;103285.75;5009413;28;20052;-72
2022/01/23 06:27:28;;;;;;;87.57;36.92;;;;;;;3.40;100.00;103283.19;5022744;28;20495;-71
2022/01/23 06:29:53;;;;;;;91.78;38.28;;;;;;;3.40;100.00;103280.63;5023210;28;20033;-71
2022/01/23 06:32:19;;;;;;;91.35;38.25;;;;;;;3.40;100.00;103280.63;5023909;28;20517;-71
2022/01/23 06:34:49;;;;;;;87.38;37.50;;;;;;;3.39;100.00;103271.22;5009909;28;20029;-71
2022/01/23 06:37:15;;;;;;;96.85;39.90;;;;;;;3.39;100.00;103276.38;5008089;28;20029;-71
2022/01/23 06:39:41;;;;;;;88.80;38.03;;;;;;;3.38;100.00;103270.41;5027992;28;20406;-72
2022/01/23 06:42:10;;;;;;;92.55;41.08;;;;;;;3.38;100.00;103280.66;5016605;28;20442;-70
2022/01/23 06:44:56;;;;;;;88.13;39.70;;;;;;;3.39;100.00;103289.19;5029310;28;20052;-72
2022/01/23 06:47:24;;;;;;;89.30;37.25;;;;;;;3.38;100.00;103285.78;5022922;28;20510;-72
2022/01/23 06:49:53;;;;;;;93.20;39.58;;;;;;;3.39;100.00;103292.63;5018308;28;20033;-71
2022/01/23 06:52:19;;;;;;;88.13;37.40;;;;;;;3.39;100.00;103292.63;5023324;28;20033;-71
2022/01/23 06:54:51;;;;;;;88.30;37.67;;;;;;;3.40;100.00;103301.97;5006154;28;20033;-71
2022/01/23 06:57:17;;;;;;;91.03;38.97;;;;;;;3.39;100.00;103300.31;5024975;28;20049;-71
2022/01/23 06:59:43;;;;;;;92.32;38.40;;;;;;;3.41;100.00;103297.69;5009679;28;20052;-72
2022/01/23 07:02:34;;;;;;;93.15;38.78;;;;;;;3.40;100.00;103296.84;5006756;28;20044;-71
2022/01/23 07:05:19;;;;;;;113.95;47.00;;;;;;;3.38;100.00;103296.06;5008107;28;20044;-71
2022/01/23 07:08:05;;;;;;;135.48;51.88;;;;;;;3.37;100.00;103299.53;5011929;28;20041;-71
2022/01/23 07:10:43;;;;;;;112.30;44.28;;;;;;;3.38;100.00;103297.78;5010461;28;20454;-71
2022/01/23 07:13:36;;;;;;;108.90;43.92;;;;;;;3.40;100.00;103298.56;5001134;28;20041;-71
2022/01/23 07:16:22;;;;;;;107.20;42.70;;;;;;;3.40;100.00;103298.56;5008154;28;20111;-72
2022/01/23 07:19:19;;;;;;;104.05;41.35;;;;;;;3.37;100.00;103303.78;5031430;28;20526;-71
2022/01/23 07:21:57;;;;;;;96.13;41.60;;;;;;;3.37;100.00;103309.78;5004722;28;20140;-71
2022/01/23 07:24:24;;;;;;;99.60;42.95;;;;;;;3.38;100.00;103314.00;5024186;23;20045;-69
2022/01/23 07:26:50;;;;;;;99.50;41.42;;;;;;;3.42;100.00;103315.59;4982373;28;20041;-68
2022/01/23 07:29:19;;;;;;;98.05;41.50;;;;;;;3.43;100.00;103319.00;4982072;28;20062;-68
2022/01/23 07:34:40;;;;;;;104.88;41.35;;;;;;;3.38;100.00;103316.56;4958910;28;20054;-68
2022/01/23 07:37:12;;;;;;;91.60;38.88;;;;;;;3.38;100.00;103311.44;4976446;28;20086;-68
2022/01/23 07:39:53;;;;;;;91.68;37.80;;;;;;;3.38;100.00;103310.63;4981230;28;20326;-67
2022/01/23 07:42:48;;;;;;;92.40;40.17;;;;;;;3.38;100.00;103321.72;4975905;28;20116;-69
2022/01/23 07:45:33;;;;;;;94.63;39.65;;;;;;;3.38;100.00;103324.28;4981886;28;20057;-68
2022/01/23 07:48:21;;;;;;;94.35;39.70;;;;;;;3.39;100.00;103330.22;4975851;28;20034;-67
2022/01/23 07:51:25;;;;;;;89.35;37.50;;;;;;;3.41;100.00;103333.59;4925605;29;20053;-67
2022/01/23 07:53:57;;;;;;;87.55;37.60;;;;;;;3.39;100.00;103336.22;4927327;29;20043;-68
2022/01/23 07:56:46;;;;;;;83.60;36.17;;;;;;;3.38;100.00;103338.84;4928792;29;20062;-68
2022/01/23 07:59:40;;;;;;;94.13;38.33;;;;;;;3.38;100.00;103339.66;4928726;28;20465;-69
2022/01/23 08:02:23;;;;;;;98.53;39.22;;;;;;;3.39;100.00;103337.94;4957287;28;20102;-69
2022/01/23 08:05:10;;;;;;;97.32;42.10;;;;;;;3.39;100.00;103337.94;5002269;28;20056;-68
2022/01/23 08:07:42;;;;;;;87.63;38.00;;;;;;;3.39;100.00;103335.34;5008353;28;20039;-68
2022/01/23 08:10:18;;;;;;;94.82;38.17;;;;;;;3.40;100.00;103344.75;4998830;28;20597;-69
2022/01/23 08:12:44;;;;;;;90.50;38.28;;;;;;;3.41;100.00;103348.97;4983140;28;20037;-68
2022/01/23 08:15:10;;;;;;;97.47;40.75;;;;;;;3.41;100.00;103351.53;5002096;28;20037;-68
2022/01/23 08:17:36;;;;;;;95.18;38.67;;;;;;;3.44;100.00;103361.72;5008363;28;20072;-68
2022/01/23 08:20:03;;;;;;;94.32;39.88;;;;;;;3.46;100.00;103359.94;5009451;28;20052;-68
2022/01/23 08:22:30;;;;;;;97.60;39.40;;;;;;;3.43;100.00;103372.88;5009751;28;20461;-68
2022/01/23 08:24:57;;;;;;;91.43;39.38;;;;;;;3.41;100.00;103375.50;4996545;28;20038;-68
2022/01/23 08:27:25;;;;;;;82.25;35.97;;;;;;;3.42;100.00;103366.06;4981905;28;20064;-69
2022/01/23 08:29:51;;;;;;;95.60;37.53;;;;;;;3.42;100.00;103364.31;4998923;28;20038;-68
2022/01/23 08:32:16;;;;;;;93.70;38.67;;;;;;;3.44;100.00;103369.41;4999335;28;20095;-68
2022/01/23 08:34:42;;;;;;;91.45;38.42;;;;;;;3.45;100.00;103363.41;5000407;28;20113;-68
2022/01/23 08:37:09;;;;;;;94.40;38.25;;;;;;;3.46;100.00;103360.78;5002824;28;20044;-68
2022/01/23 08:39:36;;;;;;;84.97;35.55;;;;;;;3.48;100.00;103364.16;4985392;28;20445;-68
2022/01/23 08:42:08;;;;;;;87.15;36.08;;;;;;;3.50;100.00;103362.38;5002120;28;20264;-68
2022/01/23 08:44:37;;;;;;;95.05;39.42;;;;;;;3.54;100.00;103367.41;5007223;28;20329;-69
2022/01/23 08:47:04;;;;;;;104.03;42.70;;;;;;;3.55;100.00;103363.97;5001432;28;20026;-68
2022/01/23 08:49:30;;;;;;;89.78;38.20;;;;;;;3.56;100.00;103366.50;5001727;28;20029;-68
2022/01/23 08:51:58;;;;;;;104.40;39.70;;;;;;;3.57;100.00;103370.72;4986746;28;20558;-69
2022/01/23 08:54:25;;;;;;;94.78;39.70;;;;;;;3.61;100.00;103374.84;4990144;28;20311;-68
2022/01/23 08:56:51;;;;;;;94.82;39.45;;;;;;;3.64;100.00;103381.66;5014757;28;20499;-69
2022/01/23 08:59:17;;;;;;;88.05;36.95;;;;;;;3.63;100.00;103379.94;5003765;28;20081;-68
2022/01/23 09:01:43;;;;;;;83.70;36.55;;;;;;;3.63;100.00;103382.50;4988929;28;20108;-68
2022/01/23 09:04:12;;;;;;;90.03;37.88;;;;;;;3.65;100.00;103381.56;5007838;28;20038;-68
2022/01/23 09:06:38;;;;;;;92.15;37.35;;;;;;;3.66;100.00;103375.56;5013715;28;20061;-68
2022/01/23 09:09:05;;;;;;;101.50;41.40;;;;;;;3.69;100.00;103377.19;4993476;28;20310;-68
2022/01/23 09:14:07;;;;;;;98.90;40.55;;;;;;;3.72;100.00;103374.53;5008127;28;20247;-68
2022/01/23 09:16:38;;;;;;;92.05;39.38;;;;;;;3.74;100.00;103377.06;5010419;28;20025;-68
2022/01/23 09:19:05;;;;;;;98.47;39.22;;;;;;;3.76;100.00;103391.50;5001660;28;20202;-68
2022/01/23 09:21:31;;;;;;;104.47;42.00;;;;;;;3.78;100.00;103386.34;5011125;28;20030;-68
2022/01/23 09:23:57;;;;;;;95.97;40.60;;;;;;;3.81;100.00;103383.69;4986918;28;20057;-68
2022/01/23 09:26:24;;;;;;;95.40;37.40;;;;;;;3.82;100.00;103381.03;5009058;28;20503;-68
2022/01/23 09:28:53;;;;;;;98.10;40.78;;;;;;;3.83;100.00;103381.91;5015935;28;20040;-68
2022/01/23 09:31:48;;;;;;;104.40;40.42;;;;;;;3.86;100.00;103387.78;5005357;28;20426;-68
2022/01/23 09:34:19;;;;;;;96.47;40.47;;;;;;;3.86;100.00;103374.94;5003746;28;20480;-68
2022/01/23 09:36:49;;;;;;;98.60;39.55;;;;;;;3.87;100.00;103376.59;4998419;28;20034;-68
2022/01/23 09:39:16;;;;;;;98.70;41.83;;;;;;;3.90;100.00;103379.09;5013907;28;20038;-69
2022/01/23 09:41:48;;;;;;;97.53;39.28;;;;;;;3.89;100.00;103379.97;5007234;28;20033;-68
2022/01/23 09:44:17;;;;;;;103.97;40.50;;;;;;;3.93;100.00;103379.88;5010039;28;20096;-69
2022/01/23 09:46:48;;;;;;;93.25;39.38;;;;;;;3.94;100.00;103382.41;5001579;28;20499;-68
2022/01/23 09:49:16;;;;;;;95.38;40.35;;;;;;;3.96;100.00;103384.91;4990044;28;20151;-69
2022/01/23 09:51:45;;;;;;;94.47;38.97;;;;;;;3.99;100.00;103392.50;5013920;28;20452;-68
2022/01/23 09:54:12;;;;;;;91.40;39.78;;;;;;;4.01;100.00;103388.16;5002113;28;20038;-68
2022/01/23 09:56:40;;;;;;;95.57;38.17;;;;;;;4.03;100.00;103389.81;5007095;28;20045;-68
2022/01/23 09:59:18;;;;;;;97.10;37.72;;;;;;;4.07;100.00;103393.13;5006977;28;20373;-69
2022/01/23 10:01:45;;;;;;;99.60;40.17;;;;;;;4.09;100.00;103401.59;4999000;28;20049;-68
2022/01/23 10:04:12;;;;;;;92.85;38.38;;;;;;;4.14;100.00;103398.88;5007922;28;20041;-69
2022/01/23 10:06:38;;;;;;;91.57;39.10;;;;;;;4.10;100.00;103396.38;5004863;28;20030;-68
2022/01/23 10:09:07;;;;;;;95.13;40.72;;;;;;;4.14;100.00;103391.16;5003974;28;20405;-68
2022/01/23 10:11:39;;;;;;;98.75;40.72;;;;;;;4.14;100.00;103394.56;5003763;28;20046;-69
2022/01/23 10:14:05;;;;;;;94.32;39.15;;;;;;;4.20;100.00;103396.09;5006547;28;20556;-68
2022/01/23 10:16:32;;;;;;;86.28;37.58;;;;;;;4.24;100.00;103392.56;5005192;28;20029;-69
2022/01/23 10:18:59;;;;;;;89.53;38.53;;;;;;;4.27;100.00;103397.56;4991073;28;20104;-68
2022/01/23 10:21:25;;;;;;;93.57;37.45;;;;;;;4.29;100.00;103404.34;4983500;28;20128;-68
2022/01/23 10:23:52;;;;;;;89.68;38.22;;;;;;;4.31;100.00;103401.72;4988598;28;20142;-69
2022/01/23 10:26:58;;;;;;;90.82;38.20;;;;;;;4.37;100.00;103395.53;5004109;28;20029;-68
2022/01/23 10:29:32;;;;;;;93.38;37.78;;;;;;;4.42;100.00;103399.63;4920915;29;20035;-69
2022/01/23 10:32:20;;;;;;;84.60;36.33;;;;;;;4.41;100.00;103399.69;4925880;29;20110;-68
2022/01/23 10:34:54;;;;;;;93.43;36.38;;;;;;;4.44;100.00;103397.84;4972714;28;20108;-68
2022/01/23 10:37:40;;;;;;;91.22;39.40;;;;;;;4.45;100.00;103399.53;5011522;28;20056;-68
2022/01/23 10:40:21;;;;;;;96.30;38.08;;;;;;;4.52;100.00;103396.72;5002222;28;20042;-68
2022/01/23 10:48:42;;;;;;;89.55;37.60;;;;;;;4.61;100.00;103399.00;4998664;28;20160;-68
2022/01/23 10:51:24;;;;;;;85.43;36.30;;;;;;;4.61;100.00;103402.38;5004292;28;20073;-68
2022/01/23 10:53:59;;;;;;;83.57;35.92;;;;;;;4.64;100.00;103398.88;4965650;28;20038;-68
2022/01/23 10:56:30;;;;;;;80.53;35.58;;;;;;;4.64;100.00;103393.75;5001453;28;20033;-68
2022/01/23 10:59:05;;;;;;;84.20;35.72;;;;;;;4.65;100.00;103386.00;4987614;28;20037;-69
2022/01/23 11:01:30;;;;;;;89.45;37.63;;;;;;;4.66;100.00;103374.81;4993966;28;20099;-68
2022/01/23 11:04:07;;;;;;;77.03;34.53;;;;;;;4.70;100.00;103378.09;5011718;28;20038;-69
2022/01/23 11:06:49;;;;;;;89.13;38.60;;;;;;;4.75;99.84;103380.53;4983955;28;20330;-68
2022/01/23 11:09:15;;;;;;;82.22;36.22;;;;;;;4.76;99.46;103382.19;5010496;28;20037;-68
2022/01/23 11:11:45;;;;;;;85.68;38.70;;;;;;;4.76;99.41;103372.72;4992353;28;20037;-68
2022/01/23 11:17:22;;;;;;;85.63;36.40;;;;;;;4.82;99.08;103379.38;5008819;28;20454;-68
2022/01/23 11:19:48;;;;;;;78.53;34.17;;;;;;;4.82;99.21;103375.09;4985997;28;20054;-69
2022/01/23 11:22:19;;;;;;;86.43;36.20;;;;;;;4.81;98.90;103380.28;4990205;28;20033;-68
2022/01/23 11:24:47;;;;;;;85.25;36.45;;;;;;;4.80;98.35;103371.75;4993498;28;20488;-68
2022/01/23 11:27:18;;;;;;;83.85;35.33;;;;;;;4.83;98.62;103369.06;5004092;28;20041;-68
2022/01/23 11:30:05;;;;;;;84.07;36.53;;;;;;;4.92;97.78;103367.06;5009348;28;20037;-68
2022/01/23 11:32:37;;;;;;;78.43;35.45;;;;;;;4.91;97.88;103365.38;5007102;28;20185;-68
2022/01/23 11:35:08;;;;;;;94.43;37.70;;;;;;;4.93;97.43;103366.97;4973379;28;20519;-68
2022/01/23 11:37:36;;;;;;;87.07;36.97;;;;;;;4.93;97.39;103366.16;5008328;28;20029;-68
2022/01/23 11:40:21;;;;;;;79.53;35.53;;;;;;;4.92;97.25;103364.50;5017165;28;20041;-68
2022/01/23 11:54:02;;;;;;;98.43;39.20;;;;;;;5.07;97.84;103345.91;5009556;28;20038;-68
2022/01/23 11:56:29;;;;;;;88.18;36.28;;;;;;;5.03;97.39;103341.78;4988748;28;20403;-68
2022/01/23 11:59:17;;;;;;;88.13;36.47;;;;;;;5.10;97.79;103337.22;5009405;28;20551;-68
2022/01/23 12:01:46;;;;;;;85.07;37.42;;;;;;;5.07;97.42;103344.16;5009416;28;20054;-69
2022/01/23 12:04:21;;;;;;;88.35;36.97;;;;;;;5.06;97.53;103345.06;4991969;28;20029;-68
2022/01/23 12:07:14;;;;;;;75.88;33.53;;;;;;;5.09;97.34;103344.13;5003337;28;20369;-69
2022/01/23 12:09:43;;;;;;;90.97;37.20;;;;;;;5.17;96.92;103339.50;5002829;28;20033;-68
2022/01/23 12:12:37;;;;;;;80.18;36.05;;;;;;;5.21;96.59;103340.22;5014654;28;20029;-67
2022/01/23 12:18:28;;;;;;;75.15;33.17;;;;;;;5.18;96.71;103336.06;5006215;28;20056;-68
2022/01/23 12:20:55;;;;;;;79.20;33.95;;;;;;;5.22;96.45;103334.19;4983834;28;20042;-68
2022/01/23 12:23:24;;;;;;;73.15;33.50;;;;;;;5.24;96.58;103332.41;4987622;28;20048;-68
2022/01/23 12:25:52;;;;;;;75.18;34.45;;;;;;;5.26;96.20;103330.59;5004501;28;20120;-69
2022/01/23 12:28:31;;;;;;;84.63;33.70;;;;;;;5.29;96.82;103329.63;5014719;28;20567;-68
2022/01/23 12:31:17;;;;;;;82.68;36.03;;;;;;;5.31;96.12;103333.00;5008213;28;20121;-68
2022/01/23 12:33:42;;;;;;;82.70;34.53;;;;;;;5.29;95.82;103319.34;4998587;28;20038;-69
2022/01/23 12:36:14;;;;;;;77.30;34.42;;;;;;;5.29;95.43;103314.19;4997192;28;20065;-68
2022/01/23 12:38:44;;;;;;;73.70;33.53;;;;;;;5.30;95.33;103310.75;5012344;28;20083;-69
2022/01/23 12:41:21;;;;;;;77.55;35.05;;;;;;;5.32;95.37;103306.38;5008819;28;20042;-69
2022/01/23 12:43:47;;;;;;;80.20;35.50;;;;;;;5.33;95.65;103313.19;5010492;28;20034;-68
2022/01/23 12:46:22;;;;;;;75.35;34.45;;;;;;;5.31;95.53;103304.69;5010872;28;20124;-68
2022/01/23 12:48:49;;;;;;;86.88;36.70;;;;;;;5.33;95.44;103297.75;4999793;28;20044;-69
2022/01/23 12:51:17;;;;;;;94.55;38.03;;;;;;;5.33;95.24;103302.88;5012211;28;20042;-68
2022/01/23 12:53:43;;;;;;;77.63;33.78;;;;;;;5.35;95.54;103298.50;5013114;28;20084;-68
2022/01/23 12:56:32;;;;;;;78.40;33.75;;;;;;;5.38;95.41;103293.25;4991432;28;20721;-67
2022/01/23 12:59:12;;;;;;;74.53;33.60;;;;;;;5.39;95.63;103295.78;4989633;28;20058;-68
2022/01/23 13:01:43;;;;;;;84.72;34.67;;;;;;;5.44;94.85;103301.59;4988821;28;20042;-68
2022/01/23 13:04:09;;;;;;;76.80;33.83;;;;;;;5.44;94.76;103295.56;5006212;28;20044;-69
2022/01/23 13:06:55;;;;;;;79.18;35.58;;;;;;;5.42;94.51;103297.38;5005158;28;20034;-69
2022/01/23 13:12:36;;;;;;;76.20;34.72;;;;;;;5.41;95.08;103295.72;5006727;28;20049;-68
2022/01/23 13:31:31;;;;;;;70.65;31.95;;;;;;;5.55;94.19;103288.25;5020440;28;20721;-78
2022/01/23 13:33:57;;;;;;;69.20;31.05;;;;;;;5.55;93.88;103287.44;5015699;28;20098;-76
2022/01/23 13:36:22;;;;;;;71.30;30.88;;;;;;;5.54;93.67;103285.75;5000407;28;20049;-75
2022/01/23 13:38:54;;;;;;;69.97;31.75;;;;;;;5.56;93.67;103283.97;5000578;28;20045;-77
2022/01/23 13:41:25;;;;;;;69.22;31.80;;;;;;;5.55;93.91;103282.28;5002749;28;20045;-77
2022/01/23 13:52:36;;;;;;;77.38;34.58;;;;;;;5.59;93.56;103278.69;5002733;28;20030;-77
2022/01/23 14:00:37;;;;;;;76.07;34.33;;;;;;;5.56;93.76;103279.66;4980563;28;20041;-77
2022/01/23 14:03:03;;;;;;;76.18;33.22;;;;;;;5.55;93.99;103284.84;4998315;28;20378;-77
2022/01/23 14:05:31;;;;;;;78.05;33.72;;;;;;;5.52;94.14;103283.25;5018395;28;20038;-77
2022/01/23 14:07:59;;;;;;;73.65;33.75;;;;;;;5.55;94.07;103277.13;5002813;28;20026;-77
2022/01/23 14:10:32;;;;;;;78.32;35.75;;;;;;;5.59;93.88;103281.25;5008769;28;20101;-76
2022/01/23 14:13:06;;;;;;;76.63;34.15;;;;;;;5.55;94.07;103279.72;5010284;28;20048;-78
2022/01/23 14:15:32;;;;;;;73.57;32.45;;;;;;;5.54;93.69;103280.59;5018596;28;20036;-78
2022/01/23 14:18:07;;;;;;;73.28;32.28;;;;;;;5.53;94.05;103273.78;5002309;28;20042;-77
2022/01/23 14:20:42;;;;;;;72.82;32.53;;;;;;;5.61;93.54;103270.00;5012314;28;20033;-78
2022/01/23 14:23:26;;;;;;;78.05;33.78;;;;;;;5.63;93.30;103272.50;4999724;28;20469;-76
2022/01/23 14:25:56;;;;;;;69.47;32.33;;;;;;;5.60;93.62;103277.78;4998145;28;20041;-77
2022/01/23 14:28:35;;;;;;;79.10;33.22;;;;;;;5.58;93.52;103275.28;4984539;28;20037;-77
2022/01/23 14:31:11;;;;;;;80.28;32.58;;;;;;;5.62;92.97;103276.81;5024129;28;20042;-77
2022/01/23 14:33:38;;;;;;;85.15;34.60;;;;;;;5.56;93.39;103278.81;5010195;28;20045;-77
2022/01/23 14:36:23;;;;;;;76.82;33.92;;;;;;;5.52;93.92;103279.81;4997142;28;20037;-77
2022/01/23 14:39:12;;;;;;;78.97;34.38;;;;;;;5.58;93.78;103285.56;5007088;28;20049;-77
2022/01/23 14:41:40;;;;;;;81.60;35.55;;;;;;;5.65;93.35;103279.28;5019974;28;20037;-77
2022/01/23 14:44:23;;;;;;;72.32;33.38;;;;;;;5.69;93.57;103273.97;5001593;28;20574;-76
2022/01/23 14:46:49;;;;;;;;;;;;;;;5.63;93.29;103280.22;5024956;28;20455;-77
2022/01/23 14:49:22;;;;;;;82.20;34.00;;;;;;;5.60;92.99;103278.63;4991749;28;19917;-77
2022/01/23 14:51:48;;;;;;;81.53;33.17;;;;;;;5.50;93.61;103287.63;5003321;28;20362;-77
2022/01/23 14:54:16;;;;;;;85.90;35.10;;;;;;;5.40;93.99;103284.56;5005644;28;20053;-77
2022/01/23 14:56:42;;;;;;;81.57;33.67;;;;;;;5.46;94.10;103278.34;4998284;28;20061;-77
2022/01/23 14:59:12;;;;;;;81.80;36.30;;;;;;;5.59;93.17;103289.81;4999544;28;20026;-77
2022/01/23 15:01:40;;;;;;;79.82;34.90;;;;;;;5.64;92.28;103282.75;4993750;28;20092;-77
2022/01/23 15:04:08;;;;;;;78.30;32.03;;;;;;;5.59;92.69;103283.84;4993281;28;20030;-77
2022/01/23 15:06:35;;;;;;;72.82;32.72;;;;;;;5.56;92.97;103277.09;5006312;28;20084;-78